createdAt,value
2022-11-27T18:54:37.789Z,78.65
2022-11-27T18:57:07.130Z,78.43
2022-11-27T18:59:34.814Z,78.14
2022-11-27T19:02:04.147Z,78.37
2022-11-27T19:04:31.058Z,78.41
2022-11-27T19:06:58.144Z,78.91
2022-11-27T19:09:25.184Z,78.91
2022-11-27T19:11:53.392Z,78.64
2022-11-27T19:14:20.420Z,78.39
2022-11-27T19:16:47.553Z,78.43
2022-11-27T19:22:07.057Z,78.14
2022-11-27T19:24:33.995Z,78.20
2022-11-27T19:27:00.894Z,77.77
2022-11-27T19:29:28.823Z,77.70
2022-11-27T19:31:58.048Z,77.51
2022-11-27T19:34:25.956Z,77.37
2022-11-27T19:36:53.176Z,77.19
2022-11-27T19:39:20.109Z,77.23
2022-11-27T19:41:48.899Z,77.26
2022-11-27T19:44:17.602Z,77.26
2022-11-27T19:49:28.164Z,76.74
2022-11-27T19:51:54.927Z,76.63
2022-11-27T19:54:23.787Z,76.95
2022-11-27T19:56:51.739Z,76.88
2022-11-27T19:59:24.279Z,76.75
2022-11-27T20:01:56.294Z,77.00
2022-11-27T20:04:26.338Z,76.64
2022-11-27T20:06:53.548Z,76.98
2022-11-27T20:09:20.477Z,77.14
2022-11-27T20:11:48.185Z,77.03
2022-11-27T20:14:17.780Z,76.93
2022-11-27T20:16:44.835Z,76.75
2022-11-27T20:19:12.220Z,76.70
2022-11-27T20:21:40.213Z,76.53
2022-11-27T20:24:07.131Z,76.44
2022-11-27T20:26:39.654Z,76.20
2022-11-27T20:29:10.036Z,75.86
2022-11-27T20:31:41.251Z,76.32
2022-11-27T20:34:14.981Z,76.34
2022-11-27T20:36:42.105Z,76.06
2022-11-27T20:39:13.927Z,75.82
2022-11-27T20:41:41.923Z,76.20
2022-11-27T20:44:09.454Z,76.63
2022-11-27T20:46:36.446Z,76.63
2022-11-27T20:49:04.661Z,76.63
2022-11-27T20:51:34.977Z,76.19
2022-11-27T20:54:08.400Z,76.45
2022-11-27T20:56:35.815Z,76.24
2022-11-27T20:59:05.149Z,76.38
2022-11-27T21:01:34.375Z,76.48
2022-11-27T21:04:04.567Z,76.57
2022-11-27T21:06:32.859Z,77.15
2022-11-27T21:09:02.393Z,77.34
2022-11-27T21:11:31.942Z,76.90
2022-11-27T21:14:02.168Z,76.46
2022-11-27T21:16:31.401Z,76.67
2022-11-27T21:19:02.722Z,76.67
2022-11-27T21:21:30.058Z,77.18
2022-11-27T21:23:58.846Z,77.17
2022-11-27T21:26:26.364Z,77.55
2022-11-27T21:28:53.262Z,77.46
2022-11-27T21:31:23.355Z,77.62
2022-11-27T21:33:59.625Z,77.42
2022-11-27T21:36:29.195Z,76.91
2022-11-27T21:38:58.129Z,77.13
2022-11-27T21:41:26.725Z,77.62
2022-11-27T21:43:56.825Z,77.73
2022-11-27T21:46:25.445Z,77.44
2022-11-27T21:48:55.228Z,77.01
2022-11-27T21:51:23.332Z,77.23
2022-11-27T21:53:52.842Z,77.29
2022-11-27T21:56:21.186Z,77.10
2022-11-27T21:58:48.955Z,77.08
2022-11-27T22:01:19.673Z,77.05
2022-11-27T22:03:51.557Z,77.10
2022-11-27T22:06:19.662Z,77.12
2022-11-27T22:08:49.524Z,77.07
2022-11-27T22:11:22.724Z,77.01
2022-11-27T22:13:49.989Z,76.75
2022-11-27T22:16:22.901Z,76.67
2022-11-27T22:18:50.517Z,76.41
2022-11-27T22:21:17.953Z,76.47
2022-11-27T22:23:45.576Z,76.44
2022-11-27T22:26:15.535Z,76.34
2022-11-27T22:28:42.695Z,76.27
2022-11-27T22:31:15.229Z,76.40
2022-11-27T22:33:43.096Z,76.36
2022-11-27T22:36:26.933Z,76.27
2022-11-27T22:38:55.407Z,76.17
2022-11-27T22:41:25.498Z,76.02
2022-11-27T22:43:53.039Z,76.12
2022-11-27T22:46:35.541Z,75.85
2022-11-27T22:49:06.202Z,75.81
2022-11-27T22:51:39.187Z,75.87
2022-11-27T22:54:07.871Z,76.10
2022-11-27T22:56:34.815Z,75.71
2022-11-27T22:59:30.651Z,75.66
2022-11-27T23:01:49.200Z,75.08
2022-11-27T23:04:16.713Z,75.49
2022-11-27T23:06:48.204Z,75.66
2022-11-27T23:09:18.341Z,75.85
2022-11-27T23:11:45.277Z,75.73
2022-11-27T23:14:12.120Z,75.63
2022-11-27T23:16:38.995Z,75.64
2022-11-27T23:19:05.891Z,75.61
2022-11-27T23:21:35.367Z,75.63
2022-11-27T23:24:02.063Z,75.93
2022-11-27T23:26:28.946Z,75.95
2022-11-27T23:28:56.409Z,75.87
2022-11-27T23:31:31.153Z,75.62
2022-11-27T23:34:02.080Z,75.53
2022-11-27T23:36:30.906Z,75.60
2022-11-27T23:39:00.080Z,75.46
2022-11-27T23:41:27.150Z,75.53
2022-11-27T23:43:55.251Z,75.61
2022-11-27T23:46:26.387Z,75.59
2022-11-27T23:48:58.088Z,75.71
2022-11-27T23:51:27.607Z,75.74
2022-11-27T23:53:54.955Z,75.75
2022-11-27T23:56:26.196Z,75.71
2022-11-27T23:58:54.941Z,75.66
